Time;durP1;ratioP1;P1;durP2;ratioP2;P2;SDS_P1;SDS_P2;PMS_P1;PMS_P2;Temp;Humidity;BMP_temperature;BMP_pressure;BME280_temperature;BME280_humidity;BME280_pressure;Samples;Min_cycle;Max_cycle;Signal;HPM_P1;HPM_P2
2023/06/11 00:00:16;;;;;;;10.10;9.00;;;;;;;20.34;52.06;100991.00;831804;23;1140;-78
2023/06/11 00:00:37;;;;;;;10.30;9.20;;;;;;;20.37;51.93;101001.56;837181;23;779;-78
2023/06/11 00:00:59;;;;;;;9.88;8.85;;;;;;;20.27;51.95;100991.03;837618;23;977;-78
2023/06/11 00:01:20;;;;;;;12.30;9.32;;;;;;;20.24;52.03;100985.75;836074;23;1396;-78
2023/06/11 00:01:41;;;;;;;13.45;9.77;;;;;;;20.22;52.13;100987.53;838380;23;744;-78
2023/06/11 00:02:02;;;;;;;13.80;9.98;;;;;;;20.23;52.06;100997.25;841541;23;1229;-78
2023/06/11 00:02:24;;;;;;;13.07;9.25;;;;;;;20.23;52.15;100991.94;847943;23;1297;-78
2023/06/11 00:02:45;;;;;;;13.00;9.30;;;;;;;20.20;51.92;100986.69;845340;23;938;-77
2023/06/11 00:03:06;;;;;;;11.03;9.10;;;;;;;20.20;52.04;100997.28;845135;23;968;-78
2023/06/11 00:03:27;;;;;;;11.00;9.30;;;;;;;20.18;52.16;100992.88;843245;23;1404;-78
2023/06/11 00:03:52;;;;;;;13.18;9.32;;;;;;;20.20;52.23;100997.28;845404;23;810;-78
2023/06/11 00:04:13;;;;;;;14.00;9.63;;;;;;;20.12;52.28;100986.72;843908;23;1949;-78
2023/06/11 00:04:34;;;;;;;14.80;9.50;;;;;;;20.15;52.38;100993.78;847015;23;810;-79
2023/06/11 00:04:57;;;;;;;12.98;9.20;;;;;;;20.19;52.01;100986.69;841383;23;1388;-78
2023/06/11 00:05:17;;;;;;;14.00;9.27;;;;;;;20.23;52.02;100997.25;839684;23;1144;-78
2023/06/11 00:05:38;;;;;;;13.13;9.23;;;;;;;20.30;52.04;101002.50;843267;23;1159;-78
2023/06/11 00:06:00;;;;;;;11.77;9.40;;;;;;;20.23;52.06;100991.09;841130;23;1175;-78
2023/06/11 00:06:22;;;;;;;11.88;9.60;;;;;;;20.26;52.01;100994.59;838757;23;1183;-78
2023/06/11 00:06:45;;;;;;;11.10;9.35;;;;;;;20.22;51.91;100987.53;842946;23;767;-78
2023/06/11 00:07:06;;;;;;;10.52;9.32;;;;;;;20.28;51.81;100997.19;844217;23;1101;-77
2023/06/11 00:07:27;;;;;;;10.50;9.38;;;;;;;20.24;52.03;100990.19;849362;23;1006;-77
2023/06/11 00:07:51;;;;;;;12.63;9.82;;;;;;;20.30;51.96;101005.16;852678;23;898;-78
2023/06/11 00:08:12;;;;;;;12.65;9.70;;;;;;;20.21;52.03;100996.38;849190;23;968;-77
2023/06/11 00:08:32;;;;;;;14.00;10.00;;;;;;;20.21;51.97;100993.75;839921;23;1338;-78
2023/06/11 00:08:54;;;;;;;12.77;10.05;;;;;;;20.26;52.02;101001.66;842862;23;1023;-77
2023/06/11 00:09:15;;;;;;;13.32;10.30;;;;;;;20.18;51.98;100991.13;844997;23;1015;-77
2023/06/11 00:09:36;;;;;;;12.45;9.90;;;;;;;20.24;51.95;101003.44;845470;23;747;-77
2023/06/11 00:09:57;;;;;;;11.87;9.50;;;;;;;20.19;52.17;100992.88;843342;23;1116;-79
2023/06/11 00:10:17;;;;;;;11.40;9.50;;;;;;;20.18;52.08;100996.44;845079;23;1158;-78
2023/06/11 00:10:38;;;;;;;10.57;9.20;;;;;;;20.18;52.13;100993.78;843904;23;1166;-77
2023/06/11 00:10:59;;;;;;;10.03;8.93;;;;;;;20.15;52.01;100988.47;845091;23;1000;-77
2023/06/11 00:11:21;;;;;;;9.60;8.60;;;;;;;20.23;51.93;100999.91;845820;23;1277;-77
2023/06/11 00:11:42;;;;;;;9.90;8.90;;;;;;;20.21;52.15;100995.50;847252;23;775;-77
2023/06/11 00:12:03;;;;;;;10.33;9.03;;;;;;;20.23;52.17;100999.91;851842;23;1394;-78
2023/06/11 00:12:23;;;;;;;10.90;9.70;;;;;;;20.14;52.16;100984.09;839587;23;916;-78
2023/06/11 00:12:44;;;;;;;11.80;9.93;;;;;;;20.15;52.13;100988.47;841311;23;926;-77
2023/06/11 00:13:05;;;;;;;11.38;9.73;;;;;;;20.19;52.10;100995.53;841019;23;965;-78
2023/06/11 00:13:28;;;;;;;10.90;9.50;;;;;;;20.21;52.18;101001.69;841126;23;1198;-78
2023/06/11 00:13:50;;;;;;;11.05;9.32;;;;;;;20.21;52.15;100995.50;845232;23;930;-78
2023/06/11 00:14:11;;;;;;;11.90;9.40;;;;;;;20.19;52.19;101000.81;840807;23;1201;-79
2023/06/11 00:14:31;;;;;;;12.03;9.30;;;;;;;20.14;52.23;100986.72;838929;23;1179;-78
2023/06/11 00:14:52;;;;;;;12.80;9.20;;;;;;;20.12;52.16;100988.53;845461;23;759;-78
2023/06/11 00:15:13;;;;;;;16.90;9.10;;;;;;;20.14;52.27;100997.31;842290;23;1370;-77
2023/06/11 00:15:34;;;;;;;15.98;8.88;;;;;;;20.14;52.12;100986.72;839857;23;1083;-77
2023/06/11 00:15:55;;;;;;;15.50;8.90;;;;;;;20.12;52.18;100985.88;835083;23;1227;-78
2023/06/11 00:16:15;;;;;;;12.17;9.00;;;;;;;20.10;52.24;100985.88;845156;23;996;-78
2023/06/11 00:16:37;;;;;;;13.20;9.63;;;;;;;20.12;52.42;100991.19;845405;23;839;-78
2023/06/11 00:17:00;;;;;;;12.15;10.00;;;;;;;20.10;52.27;100988.53;844681;23;981;-77
2023/06/11 00:17:21;;;;;;;11.40;9.90;;;;;;;20.15;52.34;101001.72;845216;23;1234;-77
2023/06/11 00:17:42;;;;;;;11.02;9.88;;;;;;;20.08;52.09;100981.47;839693;23;1126;-77
2023/06/11 00:18:04;;;;;;;11.60;9.95;;;;;;;20.04;52.24;100983.28;837088;23;1150;-77
2023/06/11 00:18:25;;;;;;;11.93;9.93;;;;;;;20.07;52.29;100995.63;835156;23;1138;-77
2023/06/11 00:18:46;;;;;;;11.30;9.63;;;;;;;19.94;52.51;100985.13;835027;23;1196;-77
2023/06/11 00:19:07;;;;;;;11.53;9.37;;;;;;;20.00;52.58;100993.00;842383;23;1162;-77
2023/06/11 00:19:29;;;;;;;11.82;9.68;;;;;;;19.97;52.68;100985.09;847259;23;1594;-78
2023/06/11 00:19:50;;;;;;;12.35;9.50;;;;;;;20.00;52.55;100990.38;845350;23;853;-77
2023/06/11 00:20:11;;;;;;;12.30;9.45;;;;;;;20.05;52.56;100997.41;841005;23;1064;-77
2023/06/11 00:20:32;;;;;;;15.38;9.10;;;;;;;20.02;52.48;100993.00;839843;23;1817;-77
2023/06/11 00:20:56;;;;;;;14.30;9.07;;;;;;;20.00;52.68;100995.66;841312;23;910;-78
2023/06/11 00:21:17;;;;;;;12.02;9.05;;;;;;;19.97;52.77;100989.50;845415;23;1463;-78
2023/06/11 00:21:43;;;;;;;10.20;9.20;;;;;;;20.01;52.52;100996.56;843860;23;1258;-77
2023/06/11 00:22:05;;;;;;;10.10;8.98;;;;;;;19.98;52.82;100988.66;847506;23;1074;-78
2023/06/11 00:22:26;;;;;;;11.00;9.10;;;;;;;19.95;52.69;100986.91;842831;23;1014;-77
2023/06/11 00:22:47;;;;;;;11.57;9.40;;;;;;;19.93;52.71;100982.50;839805;23;1350;-77
2023/06/11 00:23:08;;;;;;;12.32;9.85;;;;;;;20.00;52.60;100998.31;835856;23;1019;-77
2023/06/11 00:23:28;;;;;;;11.73;9.60;;;;;;;19.96;52.61;100991.28;835743;23;1325;-78
2023/06/11 00:23:50;;;;;;;11.73;9.40;;;;;;;19.93;52.77;100983.38;841516;23;803;-77
2023/06/11 00:24:15;;;;;;;10.98;9.05;;;;;;;19.97;52.84;100989.50;839566;23;1911;-78
2023/06/11 00:24:36;;;;;;;10.52;9.30;;;;;;;19.93;52.84;100988.69;841423;23;805;-78
2023/06/11 00:24:57;;;;;;;10.27;9.15;;;;;;;19.92;52.85;100981.59;841210;23;996;-78
2023/06/11 00:25:17;;;;;;;10.30;9.20;;;;;;;19.94;52.75;100989.53;843845;23;1145;-77
2023/06/11 00:25:38;;;;;;;11.67;9.20;;;;;;;19.87;52.92;100993.97;843123;23;847;-77
2023/06/11 00:25:59;;;;;;;11.13;9.18;;;;;;;19.84;52.97;100981.63;839853;23;1163;-77
2023/06/11 00:26:20;;;;;;;12.00;9.20;;;;;;;19.88;52.93;100987.81;834977;23;1191;-77
2023/06/11 00:26:42;;;;;;;11.00;9.38;;;;;;;19.91;53.03;100995.75;837297;23;788;-77
2023/06/11 00:27:03;;;;;;;11.77;10.10;;;;;;;19.93;53.05;100998.38;836307;23;1025;-77
2023/06/11 00:27:24;;;;;;;11.82;10.43;;;;;;;19.85;53.10;100985.16;837231;23;906;-77
2023/06/11 00:27:45;;;;;;;12.82;10.77;;;;;;;19.84;53.09;100984.28;837339;23;732;-77
2023/06/11 00:28:07;;;;;;;13.40;10.65;;;;;;;19.85;52.79;100980.75;837022;23;1080;-77
2023/06/11 00:28:27;;;;;;;13.63;10.52;;;;;;;19.90;52.96;100987.81;837012;23;988;-77
2023/06/11 00:28:48;;;;;;;13.07;10.47;;;;;;;19.86;52.84;100986.94;838315;23;768;-77
2023/06/11 00:29:09;;;;;;;11.68;10.13;;;;;;;19.96;52.91;101001.88;841769;23;1070;-78
2023/06/11 00:29:30;;;;;;;11.15;9.95;;;;;;;19.93;52.81;100991.34;839836;23;1060;-77
2023/06/11 00:29:52;;;;;;;10.63;9.50;;;;;;;19.91;52.79;100984.28;837920;23;728;-78
2023/06/11 00:30:13;;;;;;;12.13;9.50;;;;;;;19.92;52.68;100986.91;841729;23;1248;-77
2023/06/11 00:30:34;;;;;;;12.65;9.18;;;;;;;19.91;52.76;100995.75;836649;23;1299;-77
2023/06/11 00:30:55;;;;;;;12.60;9.05;;;;;;;19.94;52.86;100998.38;841045;23;1123;-77
2023/06/11 00:31:15;;;;;;;9.80;8.40;;;;;;;19.95;52.74;100994.84;841059;23;1092;-77
2023/06/11 00:31:36;;;;;;;10.17;8.90;;;;;;;19.89;52.77;100986.94;841378;23;871;-77
2023/06/11 00:31:57;;;;;;;10.75;9.45;;;;;;;19.90;53.00;100987.81;839379;23;1245;-77
2023/06/11 00:32:17;;;;;;;12.00;9.68;;;;;;;19.86;52.72;100984.28;839842;23;1215;-78
2023/06/11 00:32:40;;;;;;;12.95;9.85;;;;;;;19.86;52.91;100993.09;843818;23;1272;-77
2023/06/11 00:33:01;;;;;;;12.88;9.40;;;;;;;19.86;53.00;100981.63;838455;23;1268;-77
2023/06/11 00:33:21;;;;;;;11.90;9.57;;;;;;;19.86;53.05;100986.94;841142;23;1075;-77
2023/06/11 00:33:42;;;;;;;11.00;9.40;;;;;;;19.83;53.02;100990.47;839518;23;1410;-77
2023/06/11 00:34:03;;;;;;;10.40;9.30;;;;;;;19.88;52.98;100995.78;837040;23;1454;-77
2023/06/11 00:34:25;;;;;;;10.40;9.30;;;;;;;19.81;53.01;100976.38;835332;23;1290;-78
2023/06/11 00:34:45;;;;;;;12.32;9.55;;;;;;;19.84;53.19;100989.59;837385;23;843;-78
2023/06/11 00:35:08;;;;;;;13.53;9.73;;;;;;;19.81;53.12;100986.97;843945;23;1071;-77
2023/06/11 00:35:29;;;;;;;12.55;10.10;;;;;;;19.81;53.01;100986.06;847642;23;1528;-77
2023/06/11 00:35:51;;;;;;;11.35;9.75;;;;;;;19.79;52.98;100985.22;839785;23;1089;-77
2023/06/11 00:36:12;;;;;;;10.63;9.52;;;;;;;19.75;53.13;100983.47;838900;23;1046;-77
2023/06/11 00:36:33;;;;;;;10.38;9.27;;;;;;;19.75;53.22;100988.75;841145;23;787;-77
2023/06/11 00:36:54;;;;;;;11.20;10.00;;;;;;;19.72;53.38;100979.97;840880;23;882;-78
2023/06/11 00:37:14;;;;;;;11.85;10.35;;;;;;;19.75;53.41;100988.75;840933;23;990;-77
2023/06/11 00:37:35;;;;;;;12.38;10.10;;;;;;;19.73;53.65;100992.31;840008;23;929;-77
2023/06/11 00:37:57;;;;;;;11.60;9.65;;;;;;;19.72;53.46;100979.06;842593;23;1020;-77
2023/06/11 00:38:20;;;;;;;11.50;9.48;;;;;;;19.77;53.54;100986.97;845954;23;964;-77
2023/06/11 00:38:41;;;;;;;11.00;9.60;;;;;;;19.72;53.46;100977.31;839849;23;1303;-77
2023/06/11 00:39:02;;;;;;;11.07;9.98;;;;;;;19.73;53.42;100975.53;840910;23;1001;-77
2023/06/11 00:39:22;;;;;;;11.30;10.10;;;;;;;19.85;53.53;101003.69;839657;23;1551;-77
2023/06/11 00:39:43;;;;;;;11.30;10.10;;;;;;;19.80;53.49;100989.63;841405;23;931;-77
2023/06/11 00:40:05;;;;;;;12.10;10.10;;;;;;;19.79;53.33;100985.22;845061;23;1001;-77
2023/06/11 00:40:25;;;;;;;11.48;9.80;;;;;;;19.78;53.37;100988.75;846198;23;1240;-77
2023/06/11 00:40:47;;;;;;;11.30;9.73;;;;;;;19.81;53.44;100980.78;845363;23;867;-77
2023/06/11 00:41:08;;;;;;;11.18;9.98;;;;;;;19.79;53.22;100985.22;839888;23;1283;-77
2023/06/11 00:41:29;;;;;;;11.48;10.27;;;;;;;19.76;53.16;100986.13;839880;23;1177;-77
2023/06/11 00:41:52;;;;;;;11.18;9.35;;;;;;;19.75;53.34;100978.16;848023;23;1298;-77
2023/06/11 00:42:13;;;;;;;11.40;8.90;;;;;;;19.76;53.38;100985.22;839553;23;1382;-77
2023/06/11 00:42:33;;;;;;;11.10;8.68;;;;;;;19.72;53.35;100985.25;845408;23;748;-77
2023/06/11 00:42:54;;;;;;;11.10;9.57;;;;;;;19.74;53.45;100993.19;845332;23;1023;-77
2023/06/11 00:43:21;;;;;;;10.82;9.70;;;;;;;19.70;53.52;100987.03;843704;23;1075;-78
2023/06/11 00:43:42;;;;;;;11.85;9.75;;;;;;;19.73;53.89;100997.59;843216;23;1017;-77
2023/06/11 00:44:03;;;;;;;12.75;9.50;;;;;;;19.68;53.69;100994.09;840950;23;1902;-77
2023/06/11 00:44:23;;;;;;;14.23;9.90;;;;;;;19.65;53.82;100978.25;843811;23;1303;-77
2023/06/11 00:44:44;;;;;;;14.52;9.73;;;;;;;19.66;53.85;100990.59;841298;23;665;-77
2023/06/11 00:45:05;;;;;;;14.20;10.00;;;;;;;19.64;53.70;100995.00;835616;23;1421;-77
2023/06/11 00:45:27;;;;;;;12.93;9.95;;;;;;;19.65;53.84;100993.22;839744;23;1111;-78
2023/06/11 00:45:51;;;;;;;11.70;9.98;;;;;;;19.65;53.97;100994.13;841345;23;829;-78
2023/06/11 00:46:12;;;;;;;11.77;9.93;;;;;;;19.60;54.19;100990.63;838419;23;1261;-78
2023/06/11 00:46:33;;;;;;;15.23;9.35;;;;;;;19.61;54.06;100996.81;843856;23;964;-78
2023/06/11 00:46:54;;;;;;;15.98;9.40;;;;;;;19.57;54.02;100985.34;844774;23;791;-77
2023/06/11 00:47:16;;;;;;;15.93;9.60;;;;;;;19.64;54.18;100999.41;839602;23;1530;-78
2023/06/11 00:47:38;;;;;;;12.13;10.00;;;;;;;19.56;54.11;100983.59;841349;23;764;-78
2023/06/11 00:47:59;;;;;;;11.63;10.15;;;;;;;19.59;54.09;100991.50;835676;23;1303;-77
2023/06/11 00:48:21;;;;;;;11.30;9.82;;;;;;;19.59;54.12;100994.16;836839;23;1224;-77
2023/06/11 00:48:42;;;;;;;11.70;10.40;;;;;;;19.54;54.17;100991.53;841290;23;815;-78
2023/06/11 00:49:02;;;;;;;11.80;10.18;;;;;;;19.58;54.10;100995.03;845094;23;988;-77
2023/06/11 00:49:24;;;;;;;11.90;10.13;;;;;;;19.58;54.15;100995.03;843782;23;1236;-77
2023/06/11 00:49:44;;;;;;;11.38;9.45;;;;;;;19.55;54.37;100995.94;840002;23;1086;-77
2023/06/11 00:50:08;;;;;;;11.30;9.60;;;;;;;19.57;54.27;100991.53;839833;23;1054;-77
2023/06/11 00:50:29;;;;;;;11.88;9.82;;;;;;;19.55;54.17;100992.44;838847;23;1871;-77
2023/06/11 00:50:51;;;;;;;11.43;9.88;;;;;;;19.54;53.97;100990.69;847591;23;1259;-77
2023/06/11 00:51:12;;;;;;;10.95;9.63;;;;;;;19.48;54.36;100988.91;846562;23;1249;-77
2023/06/11 00:51:34;;;;;;;10.70;9.60;;;;;;;19.52;54.40;100990.69;845375;23;839;-77
2023/06/11 00:51:55;;;;;;;10.68;9.63;;;;;;;19.53;54.45;100994.19;845333;23;1022;-78
2023/06/11 00:52:15;;;;;;;10.98;9.88;;;;;;;19.59;54.60;101004.75;839612;23;1240;-77
2023/06/11 00:52:36;;;;;;;11.00;9.90;;;;;;;19.49;54.51;100987.16;845336;23;802;-78
2023/06/11 00:52:57;;;;;;;11.60;10.00;;;;;;;19.57;54.41;101006.53;849042;23;1055;-77
2023/06/11 00:53:21;;;;;;;12.80;10.07;;;;;;;19.47;54.31;100984.53;843813;23;1024;-77
2023/06/11 00:53:42;;;;;;;13.70;9.90;;;;;;;19.54;54.52;100995.97;851991;23;1286;-78
2023/06/11 00:54:04;;;;;;;13.80;9.80;;;;;;;19.50;54.45;100996.88;844981;23;1053;-77
2023/06/11 00:54:25;;;;;;;12.90;9.27;;;;;;;19.50;54.41;100994.22;849188;23;967;-77
2023/06/11 00:54:46;;;;;;;11.80;9.20;;;;;;;19.49;54.70;100997.75;845218;23;802;-77
2023/06/11 00:55:07;;;;;;;12.13;9.20;;;;;;;19.51;54.53;101001.25;845038;23;1009;-78
2023/06/11 00:55:28;;;;;;;12.25;9.85;;;;;;;19.51;54.47;100998.63;847751;23;1179;-77
2023/06/11 00:55:49;;;;;;;11.85;10.05;;;;;;;19.41;54.73;100982.78;845413;23;672;-77
2023/06/11 00:56:11;;;;;;;12.45;9.68;;;;;;;19.44;54.72;100984.56;844885;23;1111;-78
2023/06/11 00:56:33;;;;;;;12.20;9.73;;;;;;;19.51;54.77;101001.25;845262;23;814;-77
2023/06/11 00:56:54;;;;;;;12.43;9.77;;;;;;;19.44;54.72;100988.06;842824;23;1237;-77
2023/06/11 00:57:17;;;;;;;11.43;10.07;;;;;;;19.45;54.59;100984.56;844960;23;964;-77
2023/06/11 00:57:41;;;;;;;11.55;9.90;;;;;;;19.45;54.77;100996.88;849377;23;880;-78
2023/06/11 00:58:02;;;;;;;12.52;9.98;;;;;;;19.46;54.81;100988.06;845938;23;1366;-77
2023/06/11 00:58:23;;;;;;;12.40;9.70;;;;;;;19.48;54.91;100998.66;847186;23;964;-78
2023/06/11 00:58:45;;;;;;;11.45;9.35;;;;;;;19.44;54.93;100995.13;839912;23;1234;-77
2023/06/11 00:59:07;;;;;;;12.13;9.43;;;;;;;19.43;54.72;100993.38;840843;23;956;-78
2023/06/11 00:59:28;;;;;;;11.70;9.60;;;;;;;19.42;55.00;100987.19;845281;23;946;-78
2023/06/11 00:59:50;;;;;;;11.52;9.70;;;;;;;19.35;54.94;100990.75;844054;23;1232;-77
2023/06/11 01:00:12;;;;;;;11.48;9.85;;;;;;;19.37;54.88;100994.28;839915;23;1248;-77
2023/06/11 01:00:35;;;;;;;11.88;9.85;;;;;;;19.29;55.01;100990.78;839777;23;1319;-77
2023/06/11 01:00:58;;;;;;;10.80;9.70;;;;;;;19.34;55.25;100996.94;837280;23;985;-77
2023/06/11 01:01:26;;;;;;;9.77;8.77;;;;;;;19.35;55.09;101011.06;835216;23;1349;-77
2023/06/11 01:02:05;;;;;;;10.05;8.90;;;;;;;19.35;55.09;101001.34;839751;23;865;-77
2023/06/11 01:02:47;;;;;;;12.47;9.20;;;;;;;19.36;55.00;101000.44;839688;23;1191;-78
2023/06/11 01:03:17;;;;;;;11.43;9.50;;;;;;;19.31;55.11;100999.63;835691;23;1036;-77
2023/06/11 01:03:41;;;;;;;10.68;9.57;;;;;;;19.32;55.13;101002.22;839811;23;855;-78
2023/06/11 01:04:05;;;;;;;10.93;9.80;;;;;;;19.40;55.22;101015.44;840929;23;1964;-77
2023/06/11 01:04:29;;;;;;;11.52;10.00;;;;;;;19.38;55.19;101013.69;839273;23;1150;-77
2023/06/11 01:04:53;;;;;;;13.02;10.20;;;;;;;19.31;55.23;101012.84;843879;23;1475;-77
2023/06/11 01:05:17;;;;;;;11.95;9.80;;;;;;;19.31;55.17;101007.56;839519;23;1132;-78
2023/06/11 01:05:43;;;;;;;11.80;9.40;;;;;;;19.22;55.25;100994.34;835632;23;1276;-78
2023/06/11 01:06:11;;;;;;;11.93;10.05;;;;;;;19.29;55.43;101004.91;835519;23;1273;-78
2023/06/11 01:06:33;;;;;;;11.80;10.43;;;;;;;19.25;55.50;101004.94;835831;23;1978;-78
2023/06/11 01:07:00;;;;;;;11.27;10.10;;;;;;;19.29;55.56;101009.31;835305;23;1425;-78
2023/06/11 01:07:22;;;;;;;11.02;9.93;;;;;;;19.28;55.55;101015.50;845289;23;1001;-78
2023/06/11 01:07:50;;;;;;;11.05;9.60;;;;;;;19.25;55.84;101010.22;845440;23;862;-78
2023/06/11 01:08:13;;;;;;;10.30;9.10;;;;;;;19.23;55.67;101012.00;848994;23;1102;-78
2023/06/11 01:08:40;;;;;;;10.90;9.75;;;;;;;19.21;55.63;101003.16;843892;23;1446;-78
2023/06/11 01:09:03;;;;;;;12.18;9.80;;;;;;;19.19;55.88;101005.84;847681;23;2067;-78
2023/06/11 01:09:29;;;;;;;12.15;9.77;;;;;;;19.14;55.78;101004.97;841258;23;1027;-78
2023/06/11 01:09:51;;;;;;;11.68;9.95;;;;;;;19.15;55.79;100999.69;839798;23;1248;-78
2023/06/11 01:10:11;;;;;;;11.65;9.60;;;;;;;19.11;55.81;100997.91;840920;23;1095;-78
2023/06/11 01:10:34;;;;;;;12.20;10.30;;;;;;;19.15;55.91;101002.31;843901;23;1367;-78
2023/06/11 01:11:08;;;;;;;12.43;10.40;;;;;;;19.17;56.15;101004.94;842933;23;1309;-78
2023/06/11 01:11:32;;;;;;;12.45;10.15;;;;;;;19.07;55.93;100996.19;843178;23;1313;-76
2023/06/11 01:11:58;;;;;;;12.93;10.40;;;;;;;19.07;55.93;101001.47;839155;23;1167;-76
2023/06/11 01:12:20;;;;;;;13.75;10.13;;;;;;;19.09;56.01;100998.81;840856;23;1080;-76
2023/06/11 01:12:41;;;;;;;13.77;10.15;;;;;;;19.10;56.14;101011.16;841229;23;823;-76
2023/06/11 01:13:03;;;;;;;10.82;9.43;;;;;;;19.06;56.24;100999.72;839593;23;1231;-76
2023/06/11 01:13:23;;;;;;;10.77;9.20;;;;;;;19.08;55.91;101010.28;845216;23;901;-76
2023/06/11 01:13:45;;;;;;;11.27;9.30;;;;;;;18.99;56.19;101000.59;845321;23;947;-76
2023/06/11 01:14:07;;;;;;;11.65;9.38;;;;;;;19.07;56.16;101005.88;844987;23;1061;-76
2023/06/11 01:14:28;;;;;;;14.30;10.07;;;;;;;18.91;56.13;100985.63;845076;23;957;-76
2023/06/11 01:14:49;;;;;;;14.32;10.10;;;;;;;18.98;56.29;101006.75;836993;23;1269;-76
2023/06/11 01:15:13;;;;;;;13.73;10.25;;;;;;;18.97;56.45;101000.59;839521;23;1387;-76
2023/06/11 01:15:34;;;;;;;12.25;10.30;;;;;;;19.01;56.40;101009.41;839855;23;767;-78
2023/06/11 01:16:06;;;;;;;11.60;10.40;;;;;;;18.96;56.41;100998.84;841177;23;1063;-78
2023/06/11 01:16:42;;;;;;;11.35;9.93;;;;;;;18.98;56.59;101009.38;840994;23;934;-78
2023/06/11 01:17:10;;;;;;;11.38;9.93;;;;;;;18.95;56.64;101004.13;840222;23;981;-76
2023/06/11 01:17:40;;;;;;;11.30;9.90;;;;;;;18.97;56.64;101010.28;835709;23;1446;-76
2023/06/11 01:18:18;;;;;;;13.30;10.30;;;;;;;18.96;56.74;101014.72;837027;23;1140;-76
2023/06/11 01:19:03;;;;;;;12.40;10.25;;;;;;;18.82;56.70;100996.25;841289;23;859;-76
2023/06/11 01:19:37;;;;;;;12.20;10.43;;;;;;;18.91;56.79;101009.44;847791;23;1421;-76
2023/06/11 01:20:45;;;;;;;11.32;10.13;;;;;;;18.83;56.87;101005.94;847921;23;2011;-76
2023/06/11 01:21:18;;;;;;;13.80;10.50;;;;;;;18.81;57.32;101005.03;839660;23;1197;-77
2023/06/11 01:21:48;;;;;;;12.07;9.98;;;;;;;18.81;56.91;100993.59;842381;23;1450;-77
2023/06/11 01:22:22;;;;;;;11.27;9.65;;;;;;;18.85;56.92;101004.16;840956;23;1072;-78
2023/06/11 01:23:20;;;;;;;11.90;10.07;;;;;;;18.89;57.09;101008.53;840857;23;1044;-76
2023/06/11 01:23:55;;;;;;;10.93;9.73;;;;;;;18.80;57.32;100999.78;841195;23;775;-77
2023/06/11 01:24:59;;;;;;;12.60;9.90;;;;;;;18.79;56.96;101001.53;844826;23;1897;-76
2023/06/11 01:25:21;;;;;;;14.48;11.20;;;;;;;18.80;57.26;101005.91;841038;23;891;-76
2023/06/11 01:26:04;;;;;;;14.40;11.10;;;;;;;18.78;57.32;101005.06;847113;23;1174;-76
2023/06/11 01:26:45;;;;;;;11.23;9.75;;;;;;;18.71;57.30;101008.59;846831;23;1043;-76
2023/06/11 01:27:15;;;;;;;11.40;9.80;;;;;;;18.69;57.48;101000.66;846246;23;1063;-75
2023/06/11 01:28:04;;;;;;;12.15;10.07;;;;;;;18.63;57.56;100990.97;839811;23;1947;-76
2023/06/11 01:28:30;;;;;;;12.52;10.90;;;;;;;18.63;57.74;101006.84;839388;23;1022;-78
2023/06/11 01:28:56;;;;;;;12.27;11.00;;;;;;;18.51;58.26;100996.31;839351;23;870;-77
2023/06/11 01:29:21;;;;;;;12.63;10.60;;;;;;;18.48;58.38;100994.53;844802;23;938;-76
2023/06/11 01:29:45;;;;;;;13.70;10.68;;;;;;;18.48;58.40;101006.88;849322;23;807;-76
2023/06/11 01:30:09;;;;;;;14.65;10.63;;;;;;;18.49;58.37;101013.91;845029;23;1056;-76
2023/06/11 01:30:33;;;;;;;12.40;10.27;;;;;;;18.40;58.64;100998.06;835686;23;1330;-76
2023/06/11 01:30:57;;;;;;;12.35;10.43;;;;;;;18.42;58.58;101001.56;841086;23;995;-77
2023/06/11 01:31:20;;;;;;;11.60;10.30;;;;;;;18.38;58.63;101000.69;839455;23;1253;-77
2023/06/11 01:31:42;;;;;;;11.38;10.07;;;;;;;18.43;58.74;101003.38;845188;23;797;-77
2023/06/11 01:32:06;;;;;;;11.55;10.15;;;;;;;18.40;58.71;100996.31;844960;23;1086;-77
2023/06/11 01:32:27;;;;;;;11.48;9.98;;;;;;;18.54;58.66;101009.50;834567;23;1270;-77
2023/06/11 01:32:56;;;;;;;11.10;9.70;;;;;;;18.57;58.57;101006.84;839329;23;944;-77
2023/06/11 01:33:24;;;;;;;11.73;9.98;;;;;;;18.57;58.24;100998.91;842856;23;1460;-77
2023/06/11 01:33:46;;;;;;;11.57;10.00;;;;;;;18.60;58.11;101006.84;845264;23;826;-77
2023/06/11 01:34:13;;;;;;;11.45;9.80;;;;;;;18.64;57.98;101010.38;840842;23;1341;-77
2023/06/11 01:34:35;;;;;;;11.45;10.23;;;;;;;18.62;57.92;101001.56;839790;23;1166;-77
2023/06/11 01:35:03;;;;;;;11.85;10.55;;;;;;;18.62;58.13;101004.19;839718;23;1150;-77
2023/06/11 01:35:33;;;;;;;11.90;10.57;;;;;;;18.63;58.31;100998.06;835841;23;1343;-77
2023/06/11 01:35:57;;;;;;;12.15;10.85;;;;;;;18.62;58.15;101001.56;839822;23;1374;-77
2023/06/11 01:36:21;;;;;;;12.25;10.90;;;;;;;18.64;58.12;101002.44;842891;23;1320;-77
2023/06/11 01:36:43;;;;;;;13.43;10.77;;;;;;;18.58;58.12;101003.34;842437;23;1313;-77
2023/06/11 01:37:04;;;;;;;12.68;10.20;;;;;;;18.63;57.85;101004.19;843293;23;1113;-78
2023/06/11 01:37:29;;;;;;;15.52;10.57;;;;;;;18.62;57.98;100999.81;839664;23;1002;-77
2023/06/11 01:37:55;;;;;;;13.95;10.20;;;;;;;18.58;57.88;100987.50;843783;23;866;-76
2023/06/11 01:38:21;;;;;;;12.20;9.52;;;;;;;18.69;58.29;101010.38;839507;23;1077;-77
2023/06/11 01:38:44;;;;;;;12.18;9.63;;;;;;;18.58;57.79;100997.16;839763;23;1380;-77
2023/06/11 01:39:25;;;;;;;13.30;11.10;;;;;;;18.66;58.07;101013.88;843717;23;1016;-77
2023/06/11 01:39:51;;;;;;;13.32;10.85;;;;;;;18.61;58.02;101000.69;841196;23;1019;-77
2023/06/11 01:40:28;;;;;;;13.15;10.70;;;;;;;18.61;58.16;100999.78;839536;23;1348;-77
2023/06/11 01:40:55;;;;;;;13.18;11.23;;;;;;;18.59;58.16;100999.81;841146;23;804;-77
2023/06/11 01:41:16;;;;;;;12.27;10.63;;;;;;;18.63;58.01;101006.84;839594;23;1132;-77
2023/06/11 01:41:38;;;;;;;13.13;10.35;;;;;;;18.62;58.15;100999.81;843776;23;1340;-77
2023/06/11 01:41:59;;;;;;;11.77;9.93;;;;;;;18.63;58.17;101006.84;847840;23;1456;-77
2023/06/11 01:42:20;;;;;;;11.90;9.95;;;;;;;18.54;58.29;101005.97;842258;23;1110;-77
2023/06/11 01:42:41;;;;;;;11.67;10.00;;;;;;;18.48;58.42;101001.56;841280;23;918;-77
2023/06/11 01:43:02;;;;;;;11.07;9.70;;;;;;;18.42;58.56;101001.56;835748;23;1087;-77
2023/06/11 01:43:23;;;;;;;12.30;10.20;;;;;;;18.42;58.65;100996.28;837095;23;911;-77
2023/06/11 01:43:44;;;;;;;12.27;10.90;;;;;;;18.50;58.48;101005.09;837380;23;856;-77
2023/06/11 01:44:05;;;;;;;12.73;11.40;;;;;;;18.57;58.39;101005.97;835548;23;1913;-76
2023/06/11 01:44:28;;;;;;;12.73;11.43;;;;;;;18.49;58.40;101004.22;837206;23;942;-77
2023/06/11 01:44:49;;;;;;;12.57;10.85;;;;;;;18.57;58.61;101012.13;839321;23;1354;-77
2023/06/11 01:45:11;;;;;;;13.18;10.95;;;;;;;18.56;58.54;101010.38;834566;23;1015;-76
2023/06/11 01:45:32;;;;;;;13.45;10.25;;;;;;;18.56;58.34;101004.22;843798;23;830;-76
2023/06/11 01:45:53;;;;;;;12.80;10.02;;;;;;;18.57;58.32;101006.84;843862;23;1473;-76
2023/06/11 01:46:14;;;;;;;12.23;9.68;;;;;;;18.59;58.20;100999.81;843430;23;1449;-77
2023/06/11 01:46:35;;;;;;;12.03;9.80;;;;;;;18.61;58.20;101008.63;841142;23;808;-77
2023/06/11 01:46:56;;;;;;;12.40;10.32;;;;;;;18.59;58.04;100998.94;843120;23;1333;-77
2023/06/11 01:47:17;;;;;;;12.80;10.50;;;;;;;18.60;58.18;101000.69;843462;23;1379;-77
2023/06/11 01:47:38;;;;;;;12.10;10.30;;;;;;;18.60;58.14;101001.56;843948;23;1396;-77
2023/06/11 01:48:00;;;;;;;11.98;9.95;;;;;;;18.66;58.39;101010.34;839650;23;1352;-76
2023/06/11 01:48:23;;;;;;;13.37;10.43;;;;;;;18.58;58.10;101000.72;843533;23;1359;-76
2023/06/11 01:48:44;;;;;;;14.70;10.50;;;;;;;18.58;58.14;101003.34;843747;23;1298;-76
2023/06/11 01:49:04;;;;;;;13.60;10.38;;;;;;;18.57;58.05;101000.69;844883;23;1075;-77
2023/06/11 01:49:25;;;;;;;12.15;10.13;;;;;;;18.58;58.03;100992.78;845038;23;1043;-77
2023/06/11 01:49:46;;;;;;;11.50;10.30;;;;;;;18.59;58.23;101004.22;835963;23;1292;-77
2023/06/11 01:50:07;;;;;;;11.85;10.65;;;;;;;18.62;58.21;101015.66;835143;23;1166;-76
2023/06/11 01:50:27;;;;;;;12.38;11.07;;;;;;;18.65;58.15;101006.84;837109;23;1015;-77
2023/06/11 01:50:48;;;;;;;12.20;10.90;;;;;;;18.70;58.04;101020.94;840031;23;1228;-77